sensor_id;sensor_type;location;lat;lon;timestamp;P1;durP1;ratioP1;P2;durP2;ratioP2
58621;SDS011;44389;51.578;5.456;2023-09-08T00:01:11;0.00;;;0.00;;
58621;SDS011;44389;51.578;5.456;2023-09-08T00:03:36;0.10;;;0.10;;
58621;SDS011;44389;51.578;5.456;2023-09-08T00:06:02;0.10;;;0.10;;
58621;SDS011;44389;51.578;5.456;2023-09-08T00:08:27;0.10;;;0.10;;
58621;SDS011;44389;51.578;5.456;2023-09-08T00:10:52;0.00;;;0.00;;
58621;SDS011;44389;51.578;5.456;2023-09-08T00:13:17;0.10;;;0.10;;
58621;SDS011;44389;51.578;5.456;2023-09-08T00:15:43;0.10;;;0.10;;
58621;SDS011;44389;51.578;5.456;2023-09-08T00:18:08;0.10;;;0.10;;
58621;SDS011;44389;51.578;5.456;2023-09-08T00:20:33;0.10;;;0.10;;
58621;SDS011;44389;51.578;5.456;2023-09-08T00:22:59;0.10;;;0.10;;
58621;SDS011;44389;51.578;5.456;2023-09-08T00:25:25;0.10;;;0.10;;
58621;SDS011;44389;51.578;5.456;2023-09-08T00:27:50;0.00;;;0.00;;
58621;SDS011;44389;51.578;5.456;2023-09-08T00:30:15;0.10;;;0.10;;
58621;SDS011;44389;51.578;5.456;2023-09-08T00:32:41;0.10;;;0.10;;
58621;SDS011;44389;51.578;5.456;2023-09-08T00:35:06;0.10;;;0.10;;
58621;SDS011;44389;51.578;5.456;2023-09-08T00:37:34;0.10;;;0.10;;
58621;SDS011;44389;51.578;5.456;2023-09-08T00:40:00;0.03;;;0.03;;
58621;SDS011;44389;51.578;5.456;2023-09-08T00:42:25;0.10;;;0.10;;
58621;SDS011;44389;51.578;5.456;2023-09-08T00:44:50;0.10;;;0.10;;
58621;SDS011;44389;51.578;5.456;2023-09-08T00:47:15;0.10;;;0.10;;
58621;SDS011;44389;51.578;5.456;2023-09-08T00:49:41;0.10;;;0.10;;
58621;SDS011;44389;51.578;5.456;2023-09-08T00:52:06;0.10;;;0.10;;
58621;SDS011;44389;51.578;5.456;2023-09-08T00:54:32;0.10;;;0.10;;
58621;SDS011;44389;51.578;5.456;2023-09-08T00:56:57;0.00;;;0.00;;
58621;SDS011;44389;51.578;5.456;2023-09-08T00:59:26;0.10;;;0.10;;
58621;SDS011;44389;51.578;5.456;2023-09-08T01:01:52;0.10;;;0.10;;
58621;SDS011;44389;51.578;5.456;2023-09-08T01:04:17;0.10;;;0.10;;
58621;SDS011;44389;51.578;5.456;2023-09-08T01:06:44;0.10;;;0.10;;
58621;SDS011;44389;51.578;5.456;2023-09-08T01:09:10;0.10;;;0.10;;
58621;SDS011;44389;51.578;5.456;2023-09-08T01:11:36;0.10;;;0.10;;
58621;SDS011;44389;51.578;5.456;2023-09-08T01:14:02;0.10;;;0.10;;
58621;SDS011;44389;51.578;5.456;2023-09-08T01:16:27;0.10;;;0.10;;
58621;SDS011;44389;51.578;5.456;2023-09-08T01:18:52;0.10;;;0.10;;
58621;SDS011;44389;51.578;5.456;2023-09-08T01:21:41;0.10;;;0.10;;
58621;SDS011;44389;51.578;5.456;2023-09-08T01:26:51;0.05;;;0.05;;
58621;SDS011;44389;51.578;5.456;2023-09-08T01:29:18;0.10;;;0.10;;
58621;SDS011;44389;51.578;5.456;2023-09-08T01:31:44;0.10;;;0.10;;
58621;SDS011;44389;51.578;5.456;2023-09-08T01:34:11;0.10;;;0.10;;
58621;SDS011;44389;51.578;5.456;2023-09-08T01:36:37;0.10;;;0.10;;
58621;SDS011;44389;51.578;5.456;2023-09-08T01:39:02;0.05;;;0.05;;
58621;SDS011;44389;51.578;5.456;2023-09-08T01:41:28;0.10;;;0.10;;
58621;SDS011;44389;51.578;5.456;2023-09-08T01:43:53;0.10;;;0.10;;
58621;SDS011;44389;51.578;5.456;2023-09-08T01:46:19;0.10;;;0.10;;
58621;SDS011;44389;51.578;5.456;2023-09-08T01:48:45;0.10;;;0.10;;
58621;SDS011;44389;51.578;5.456;2023-09-08T01:51:10;0.10;;;0.10;;
58621;SDS011;44389;51.578;5.456;2023-09-08T01:53:35;0.00;;;0.00;;
58621;SDS011;44389;51.578;5.456;2023-09-08T01:56:01;0.10;;;0.10;;
58621;SDS011;44389;51.578;5.456;2023-09-08T01:58:26;0.10;;;0.10;;
58621;SDS011;44389;51.578;5.456;2023-09-08T02:00:51;0.00;;;0.00;;
58621;SDS011;44389;51.578;5.456;2023-09-08T02:03:17;0.10;;;0.10;;
58621;SDS011;44389;51.578;5.456;2023-09-08T02:05:42;0.10;;;0.10;;
58621;SDS011;44389;51.578;5.456;2023-09-08T02:08:08;0.00;;;0.00;;
58621;SDS011;44389;51.578;5.456;2023-09-08T02:10:33;0.10;;;0.10;;
58621;SDS011;44389;51.578;5.456;2023-09-08T02:12:58;0.10;;;0.10;;
58621;SDS011;44389;51.578;5.456;2023-09-08T02:15:24;0.00;;;0.00;;
58621;SDS011;44389;51.578;5.456;2023-09-08T02:17:52;0.13;;;0.13;;
58621;SDS011;44389;51.578;5.456;2023-09-08T02:20:18;0.10;;;0.10;;
58621;SDS011;44389;51.578;5.456;2023-09-08T02:22:43;0.10;;;0.10;;
58621;SDS011;44389;51.578;5.456;2023-09-08T02:25:08;0.10;;;0.10;;
58621;SDS011;44389;51.578;5.456;2023-09-08T02:27:34;0.10;;;0.10;;
58621;SDS011;44389;51.578;5.456;2023-09-08T02:29:59;0.10;;;0.10;;
58621;SDS011;44389;51.578;5.456;2023-09-08T02:32:24;0.10;;;0.10;;
58621;SDS011;44389;51.578;5.456;2023-09-08T02:34:49;0.10;;;0.10;;
58621;SDS011;44389;51.578;5.456;2023-09-08T02:37:15;0.10;;;0.10;;
58621;SDS011;44389;51.578;5.456;2023-09-08T02:39:40;0.10;;;0.10;;
58621;SDS011;44389;51.578;5.456;2023-09-08T02:42:06;0.10;;;0.10;;
58621;SDS011;44389;51.578;5.456;2023-09-08T02:44:31;0.10;;;0.10;;
58621;SDS011;44389;51.578;5.456;2023-09-08T02:46:57;0.10;;;0.10;;
58621;SDS011;44389;51.578;5.456;2023-09-08T02:49:22;0.10;;;0.10;;
58621;SDS011;44389;51.578;5.456;2023-09-08T02:51:47;0.10;;;0.10;;
58621;SDS011;44389;51.578;5.456;2023-09-08T02:54:13;0.00;;;0.00;;
58621;SDS011;44389;51.578;5.456;2023-09-08T02:56:38;0.10;;;0.10;;
58621;SDS011;44389;51.578;5.456;2023-09-08T02:59:03;0.10;;;0.10;;
58621;SDS011;44389;51.578;5.456;2023-09-08T03:01:29;0.00;;;0.00;;
58621;SDS011;44389;51.578;5.456;2023-09-08T03:03:54;0.10;;;0.10;;
58621;SDS011;44389;51.578;5.456;2023-09-08T03:06:19;0.10;;;0.10;;
58621;SDS011;44389;51.578;5.456;2023-09-08T03:08:45;0.10;;;0.10;;
58621;SDS011;44389;51.578;5.456;2023-09-08T03:11:12;0.10;;;0.10;;
58621;SDS011;44389;51.578;5.456;2023-09-08T03:13:37;0.10;;;0.10;;
58621;SDS011;44389;51.578;5.456;2023-09-08T03:16:03;0.10;;;0.10;;
58621;SDS011;44389;51.578;5.456;2023-09-08T03:18:30;0.10;;;0.10;;
58621;SDS011;44389;51.578;5.456;2023-09-08T03:20:57;0.10;;;0.10;;
58621;SDS011;44389;51.578;5.456;2023-09-08T03:23:23;0.10;;;0.10;;
58621;SDS011;44389;51.578;5.456;2023-09-08T03:25:48;0.10;;;0.10;;
58621;SDS011;44389;51.578;5.456;2023-09-08T03:28:14;0.10;;;0.10;;
58621;SDS011;44389;51.578;5.456;2023-09-08T03:30:40;0.10;;;0.10;;
58621;SDS011;44389;51.578;5.456;2023-09-08T03:33:05;0.10;;;0.10;;
58621;SDS011;44389;51.578;5.456;2023-09-08T03:35:30;0.10;;;0.10;;
58621;SDS011;44389;51.578;5.456;2023-09-08T03:37:56;0.10;;;0.10;;
58621;SDS011;44389;51.578;5.456;2023-09-08T03:40:21;0.10;;;0.10;;
58621;SDS011;44389;51.578;5.456;2023-09-08T03:42:46;0.10;;;0.10;;
58621;SDS011;44389;51.578;5.456;2023-09-08T03:45:11;0.10;;;0.10;;
58621;SDS011;44389;51.578;5.456;2023-09-08T03:47:37;0.10;;;0.10;;
58621;SDS011;44389;51.578;5.456;2023-09-08T03:50:02;0.10;;;0.10;;
58621;SDS011;44389;51.578;5.456;2023-09-08T03:52:28;0.10;;;0.10;;
58621;SDS011;44389;51.578;5.456;2023-09-08T03:54:53;0.10;;;0.10;;
58621;SDS011;44389;51.578;5.456;2023-09-08T03:57:18;0.10;;;0.10;;
58621;SDS011;44389;51.578;5.456;2023-09-08T03:59:44;0.10;;;0.10;;
58621;SDS011;44389;51.578;5.456;2023-09-08T04:02:09;0.10;;;0.10;;
58621;SDS011;44389;51.578;5.456;2023-09-08T04:04:34;0.10;;;0.10;;
58621;SDS011;44389;51.578;5.456;2023-09-08T04:07:00;0.03;;;0.03;;
58621;SDS011;44389;51.578;5.456;2023-09-08T04:09:25;0.10;;;0.10;;
58621;SDS011;44389;51.578;5.456;2023-09-08T04:11:50;0.10;;;0.10;;
58621;SDS011;44389;51.578;5.456;2023-09-08T04:14:16;0.10;;;0.10;;
58621;SDS011;44389;51.578;5.456;2023-09-08T04:16:44;0.00;;;0.00;;
58621;SDS011;44389;51.578;5.456;2023-09-08T04:19:09;0.00;;;0.00;;
58621;SDS011;44389;51.578;5.456;2023-09-08T04:21:35;0.10;;;0.10;;
58621;SDS011;44389;51.578;5.456;2023-09-08T04:24:00;0.10;;;0.10;;
58621;SDS011;44389;51.578;5.456;2023-09-08T04:26:26;0.10;;;0.10;;
58621;SDS011;44389;51.578;5.456;2023-09-08T04:28:51;0.10;;;0.10;;
58621;SDS011;44389;51.578;5.456;2023-09-08T04:31:16;0.10;;;0.10;;
58621;SDS011;44389;51.578;5.456;2023-09-08T04:33:43;0.10;;;0.10;;
58621;SDS011;44389;51.578;5.456;2023-09-08T04:36:08;0.10;;;0.10;;
58621;SDS011;44389;51.578;5.456;2023-09-08T04:38:35;0.10;;;0.10;;
58621;SDS011;44389;51.578;5.456;2023-09-08T04:41:01;0.10;;;0.10;;
58621;SDS011;44389;51.578;5.456;2023-09-08T04:43:26;0.10;;;0.10;;
58621;SDS011;44389;51.578;5.456;2023-09-08T04:45:51;0.10;;;0.10;;
58621;SDS011;44389;51.578;5.456;2023-09-08T04:48:17;0.10;;;0.10;;
58621;SDS011;44389;51.578;5.456;2023-09-08T04:50:42;0.10;;;0.10;;
58621;SDS011;44389;51.578;5.456;2023-09-08T04:53:07;0.10;;;0.10;;
58621;SDS011;44389;51.578;5.456;2023-09-08T04:55:33;0.10;;;0.10;;
58621;SDS011;44389;51.578;5.456;2023-09-08T04:57:58;0.10;;;0.10;;
58621;SDS011;44389;51.578;5.456;2023-09-08T05:00:23;0.10;;;0.10;;
58621;SDS011;44389;51.578;5.456;2023-09-08T05:02:49;0.10;;;0.10;;
58621;SDS011;44389;51.578;5.456;2023-09-08T05:05:14;0.10;;;0.10;;
58621;SDS011;44389;51.578;5.456;2023-09-08T05:07:39;0.10;;;0.10;;
58621;SDS011;44389;51.578;5.456;2023-09-08T05:10:05;0.10;;;0.10;;
58621;SDS011;44389;51.578;5.456;2023-09-08T05:12:30;0.10;;;0.10;;
58621;SDS011;44389;51.578;5.456;2023-09-08T05:14:56;0.10;;;0.10;;
58621;SDS011;44389;51.578;5.456;2023-09-08T05:17:25;0.10;;;0.10;;
58621;SDS011;44389;51.578;5.456;2023-09-08T05:19:51;0.10;;;0.10;;
58621;SDS011;44389;51.578;5.456;2023-09-08T05:22:16;0.10;;;0.10;;
58621;SDS011;44389;51.578;5.456;2023-09-08T05:24:42;0.10;;;0.10;;
58621;SDS011;44389;51.578;5.456;2023-09-08T05:27:07;0.10;;;0.10;;
58621;SDS011;44389;51.578;5.456;2023-09-08T05:29:32;0.10;;;0.10;;
58621;SDS011;44389;51.578;5.456;2023-09-08T05:31:58;0.10;;;0.10;;
58621;SDS011;44389;51.578;5.456;2023-09-08T05:34:23;0.10;;;0.10;;
58621;SDS011;44389;51.578;5.456;2023-09-08T05:36:49;0.10;;;0.10;;
58621;SDS011;44389;51.578;5.456;2023-09-08T05:39:14;0.10;;;0.10;;
58621;SDS011;44389;51.578;5.456;2023-09-08T05:41:40;0.10;;;0.10;;
58621;SDS011;44389;51.578;5.456;2023-09-08T05:44:05;0.10;;;0.10;;
58621;SDS011;44389;51.578;5.456;2023-09-08T05:46:31;0.10;;;0.10;;
58621;SDS011;44389;51.578;5.456;2023-09-08T05:48:56;0.10;;;0.10;;
58621;SDS011;44389;51.578;5.456;2023-09-08T05:51:21;0.10;;;0.10;;
58621;SDS011;44389;51.578;5.456;2023-09-08T05:53:47;0.10;;;0.10;;
58621;SDS011;44389;51.578;5.456;2023-09-08T05:56:13;0.03;;;0.03;;
58621;SDS011;44389;51.578;5.456;2023-09-08T05:58:38;0.10;;;0.10;;
58621;SDS011;44389;51.578;5.456;2023-09-08T06:01:03;0.10;;;0.10;;
58621;SDS011;44389;51.578;5.456;2023-09-08T06:03:30;0.10;;;0.10;;
58621;SDS011;44389;51.578;5.456;2023-09-08T06:05:56;0.10;;;0.10;;
58621;SDS011;44389;51.578;5.456;2023-09-08T06:08:21;0.10;;;0.10;;
58621;SDS011;44389;51.578;5.456;2023-09-08T06:10:47;0.10;;;0.10;;
58621;SDS011;44389;51.578;5.456;2023-09-08T06:13:12;0.17;;;0.17;;
58621;SDS011;44389;51.578;5.456;2023-09-08T06:15:37;0.00;;;0.00;;
58621;SDS011;44389;51.578;5.456;2023-09-08T06:18:03;0.10;;;0.10;;
58621;SDS011;44389;51.578;5.456;2023-09-08T06:20:28;0.10;;;0.10;;
58621;SDS011;44389;51.578;5.456;2023-09-08T06:22:54;0.10;;;0.10;;
58621;SDS011;44389;51.578;5.456;2023-09-08T06:25:19;0.00;;;0.00;;
58621;SDS011;44389;51.578;5.456;2023-09-08T06:27:45;0.10;;;0.10;;
58621;SDS011;44389;51.578;5.456;2023-09-08T06:30:10;0.10;;;0.10;;
58621;SDS011;44389;51.578;5.456;2023-09-08T06:32:38;0.05;;;0.05;;
58621;SDS011;44389;51.578;5.456;2023-09-08T06:35:04;0.00;;;0.00;;
58621;SDS011;44389;51.578;5.456;2023-09-08T06:37:29;0.10;;;0.10;;
58621;SDS011;44389;51.578;5.456;2023-09-08T06:40:00;0.00;;;0.00;;
58621;SDS011;44389;51.578;5.456;2023-09-08T06:42:26;0.00;;;0.00;;
58621;SDS011;44389;51.578;5.456;2023-09-08T06:44:51;0.10;;;0.10;;
58621;SDS011;44389;51.578;5.456;2023-09-08T06:47:16;0.20;;;0.10;;
58621;SDS011;44389;51.578;5.456;2023-09-08T06:49:41;0.10;;;0.10;;
58621;SDS011;44389;51.578;5.456;2023-09-08T06:52:07;0.00;;;0.00;;
58621;SDS011;44389;51.578;5.456;2023-09-08T06:54:32;0.10;;;0.10;;
58621;SDS011;44389;51.578;5.456;2023-09-08T06:56:57;0.08;;;0.08;;
58621;SDS011;44389;51.578;5.456;2023-09-08T06:59:23;0.00;;;0.00;;
58621;SDS011;44389;51.578;5.456;2023-09-08T07:01:48;0.10;;;0.10;;
58621;SDS011;44389;51.578;5.456;2023-09-08T07:04:13;0.08;;;0.08;;
58621;SDS011;44389;51.578;5.456;2023-09-08T07:06:39;0.03;;;0.03;;
58621;SDS011;44389;51.578;5.456;2023-09-08T07:09:06;0.00;;;0.00;;
58621;SDS011;44389;51.578;5.456;2023-09-08T07:11:32;0.00;;;0.00;;
58621;SDS011;44389;51.578;5.456;2023-09-08T07:13:57;0.10;;;0.10;;
58621;SDS011;44389;51.578;5.456;2023-09-08T07:16:22;0.00;;;0.00;;
58621;SDS011;44389;51.578;5.456;2023-09-08T07:18:47;0.10;;;0.10;;
58621;SDS011;44389;51.578;5.456;2023-09-08T07:21:13;0.00;;;0.00;;
58621;SDS011;44389;51.578;5.456;2023-09-08T07:23:39;0.00;;;0.00;;
58621;SDS011;44389;51.578;5.456;2023-09-08T07:26:04;0.00;;;0.00;;
58621;SDS011;44389;51.578;5.456;2023-09-08T07:28:29;0.00;;;0.00;;
58621;SDS011;44389;51.578;5.456;2023-09-08T07:31:00;0.10;;;0.10;;
58621;SDS011;44389;51.578;5.456;2023-09-08T07:33:27;0.00;;;0.00;;
58621;SDS011;44389;51.578;5.456;2023-09-08T07:35:52;0.00;;;0.00;;
58621;SDS011;44389;51.578;5.456;2023-09-08T07:38:17;0.00;;;0.00;;
58621;SDS011;44389;51.578;5.456;2023-09-08T07:40:43;0.00;;;0.00;;
58621;SDS011;44389;51.578;5.456;2023-09-08T07:43:08;0.00;;;0.00;;
58621;SDS011;44389;51.578;5.456;2023-09-08T07:45:33;0.00;;;0.00;;
58621;SDS011;44389;51.578;5.456;2023-09-08T07:47:58;0.00;;;0.00;;
58621;SDS011;44389;51.578;5.456;2023-09-08T07:50:25;0.00;;;0.00;;
58621;SDS011;44389;51.578;5.456;2023-09-08T07:52:54;0.00;;;0.00;;
58621;SDS011;44389;51.578;5.456;2023-09-08T07:55:20;0.10;;;0.10;;
58621;SDS011;44389;51.578;5.456;2023-09-08T07:57:52;0.00;;;0.00;;
58621;SDS011;44389;51.578;5.456;2023-09-08T08:00:18;0.00;;;0.00;;
58621;SDS011;44389;51.578;5.456;2023-09-08T08:02:47;0.00;;;0.00;;
58621;SDS011;44389;51.578;5.456;2023-09-08T08:05:14;0.00;;;0.00;;
58621;SDS011;44389;51.578;5.456;2023-09-08T08:07:41;0.00;;;0.00;;
58621;SDS011;44389;51.578;5.456;2023-09-08T08:10:07;0.00;;;0.00;;
58621;SDS011;44389;51.578;5.456;2023-09-08T08:12:32;0.00;;;0.00;;
58621;SDS011;44389;51.578;5.456;2023-09-08T08:14:58;0.00;;;0.00;;
58621;SDS011;44389;51.578;5.456;2023-09-08T08:17:24;0.00;;;0.00;;
58621;SDS011;44389;51.578;5.456;2023-09-08T08:19:50;0.00;;;0.00;;
58621;SDS011;44389;51.578;5.456;2023-09-08T08:22:16;0.00;;;0.00;;
58621;SDS011;44389;51.578;5.456;2023-09-08T08:24:41;0.00;;;0.00;;
58621;SDS011;44389;51.578;5.456;2023-09-08T08:27:06;0.00;;;0.00;;
58621;SDS011;44389;51.578;5.456;2023-09-08T08:29:32;0.00;;;0.00;;
58621;SDS011;44389;51.578;5.456;2023-09-08T08:31:57;0.00;;;0.00;;
58621;SDS011;44389;51.578;5.456;2023-09-08T08:34:22;0.00;;;0.00;;
58621;SDS011;44389;51.578;5.456;2023-09-08T08:36:48;0.00;;;0.00;;
58621;SDS011;44389;51.578;5.456;2023-09-08T08:39:13;0.00;;;0.00;;
58621;SDS011;44389;51.578;5.456;2023-09-08T08:41:40;0.00;;;0.00;;
58621;SDS011;44389;51.578;5.456;2023-09-08T08:44:06;0.00;;;0.00;;
58621;SDS011;44389;51.578;5.456;2023-09-08T08:46:32;0.00;;;0.00;;
58621;SDS011;44389;51.578;5.456;2023-09-08T08:49:00;0.00;;;0.00;;
58621;SDS011;44389;51.578;5.456;2023-09-08T08:51:27;0.00;;;0.00;;
58621;SDS011;44389;51.578;5.456;2023-09-08T08:53:55;0.00;;;0.00;;
58621;SDS011;44389;51.578;5.456;2023-09-08T08:56:20;0.00;;;0.00;;
58621;SDS011;44389;51.578;5.456;2023-09-08T08:58:46;0.00;;;0.00;;
58621;SDS011;44389;51.578;5.456;2023-09-08T09:01:13;0.00;;;0.00;;
58621;SDS011;44389;51.578;5.456;2023-09-08T09:03:45;0.00;;;0.00;;
58621;SDS011;44389;51.578;5.456;2023-09-08T09:06:14;0.00;;;0.00;;
58621;SDS011;44389;51.578;5.456;2023-09-08T09:08:40;0.00;;;0.00;;
58621;SDS011;44389;51.578;5.456;2023-09-08T09:11:08;0.00;;;0.00;;
58621;SDS011;44389;51.578;5.456;2023-09-08T09:13:34;0.00;;;0.00;;
58621;SDS011;44389;51.578;5.456;2023-09-08T09:15:59;0.00;;;0.00;;
58621;SDS011;44389;51.578;5.456;2023-09-08T09:18:25;0.00;;;0.00;;
58621;SDS011;44389;51.578;5.456;2023-09-08T09:20:54;0.00;;;0.00;;
58621;SDS011;44389;51.578;5.456;2023-09-08T09:23:31;0.00;;;0.00;;
58621;SDS011;44389;51.578;5.456;2023-09-08T09:25:57;0.00;;;0.00;;
58621;SDS011;44389;51.578;5.456;2023-09-08T09:28:24;0.00;;;0.00;;
58621;SDS011;44389;51.578;5.456;2023-09-08T09:30:51;0.00;;;0.00;;
58621;SDS011;44389;51.578;5.456;2023-09-08T09:33:19;0.00;;;0.00;;
58621;SDS011;44389;51.578;5.456;2023-09-08T09:35:46;0.00;;;0.00;;
58621;SDS011;44389;51.578;5.456;2023-09-08T09:38:13;0.00;;;0.00;;
58621;SDS011;44389;51.578;5.456;2023-09-08T09:40:39;0.00;;;0.00;;
58621;SDS011;44389;51.578;5.456;2023-09-08T09:43:05;0.00;;;0.00;;
58621;SDS011;44389;51.578;5.456;2023-09-08T09:45:35;0.00;;;0.00;;
58621;SDS011;44389;51.578;5.456;2023-09-08T09:48:04;0.00;;;0.00;;
58621;SDS011;44389;51.578;5.456;2023-09-08T09:50:37;0.00;;;0.00;;
58621;SDS011;44389;51.578;5.456;2023-09-08T09:53:08;0.00;;;0.00;;
58621;SDS011;44389;51.578;5.456;2023-09-08T09:55:38;0.00;;;0.00;;
58621;SDS011;44389;51.578;5.456;2023-09-08T10:00:30;0.00;;;0.00;;
58621;SDS011;44389;51.578;5.456;2023-09-08T10:02:58;0.00;;;0.00;;
58621;SDS011;44389;51.578;5.456;2023-09-08T10:05:24;0.00;;;0.00;;
58621;SDS011;44389;51.578;5.456;2023-09-08T10:07:50;0.00;;;0.00;;
58621;SDS011;44389;51.578;5.456;2023-09-08T10:10:16;0.00;;;0.00;;
58621;SDS011;44389;51.578;5.456;2023-09-08T10:12:45;0.00;;;0.00;;
58621;SDS011;44389;51.578;5.456;2023-09-08T10:15:15;0.00;;;0.00;;
58621;SDS011;44389;51.578;5.456;2023-09-08T10:17:45;0.00;;;0.00;;
58621;SDS011;44389;51.578;5.456;2023-09-08T10:20:17;0.00;;;0.00;;
58621;SDS011;44389;51.578;5.456;2023-09-08T10:22:50;0.00;;;0.00;;
58621;SDS011;44389;51.578;5.456;2023-09-08T10:25:19;0.00;;;0.00;;
58621;SDS011;44389;51.578;5.456;2023-09-08T10:27:46;0.00;;;0.00;;
58621;SDS011;44389;51.578;5.456;2023-09-08T10:30:12;0.00;;;0.00;;
58621;SDS011;44389;51.578;5.456;2023-09-08T10:32:39;0.00;;;0.00;;
58621;SDS011;44389;51.578;5.456;2023-09-08T10:35:06;0.00;;;0.00;;
58621;SDS011;44389;51.578;5.456;2023-09-08T10:37:32;0.00;;;0.00;;
58621;SDS011;44389;51.578;5.456;2023-09-08T10:42:44;0.00;;;0.00;;
58621;SDS011;44389;51.578;5.456;2023-09-08T10:45:19;0.00;;;0.00;;
58621;SDS011;44389;51.578;5.456;2023-09-08T10:50:17;0.00;;;0.00;;
58621;SDS011;44389;51.578;5.456;2023-09-08T10:52:43;0.00;;;0.00;;
58621;SDS011;44389;51.578;5.456;2023-09-08T10:55:35;0.00;;;0.00;;
58621;SDS011;44389;51.578;5.456;2023-09-08T10:58:03;0.00;;;0.00;;
58621;SDS011;44389;51.578;5.456;2023-09-08T11:00:29;0.00;;;0.00;;
58621;SDS011;44389;51.578;5.456;2023-09-08T11:03:08;0.00;;;0.00;;
58621;SDS011;44389;51.578;5.456;2023-09-08T11:05:33;0.00;;;0.00;;
58621;SDS011;44389;51.578;5.456;2023-09-08T11:07:59;0.00;;;0.00;;
58621;SDS011;44389;51.578;5.456;2023-09-08T11:10:25;0.00;;;0.00;;
58621;SDS011;44389;51.578;5.456;2023-09-08T11:12:50;0.00;;;0.00;;
58621;SDS011;44389;51.578;5.456;2023-09-08T11:15:16;0.00;;;0.00;;
58621;SDS011;44389;51.578;5.456;2023-09-08T11:17:41;0.00;;;0.00;;
58621;SDS011;44389;51.578;5.456;2023-09-08T11:20:08;0.00;;;0.00;;
58621;SDS011;44389;51.578;5.456;2023-09-08T11:22:35;0.00;;;0.00;;
58621;SDS011;44389;51.578;5.456;2023-09-08T11:25:02;0.00;;;0.00;;
58621;SDS011;44389;51.578;5.456;2023-09-08T11:27:31;0.00;;;0.00;;
58621;SDS011;44389;51.578;5.456;2023-09-08T11:29:56;0.00;;;0.00;;
58621;SDS011;44389;51.578;5.456;2023-09-08T11:32:22;0.00;;;0.00;;
58621;SDS011;44389;51.578;5.456;2023-09-08T11:34:48;0.00;;;0.00;;
58621;SDS011;44389;51.578;5.456;2023-09-08T11:37:14;0.00;;;0.00;;
58621;SDS011;44389;51.578;5.456;2023-09-08T11:39:43;0.00;;;0.00;;
58621;SDS011;44389;51.578;5.456;2023-09-08T11:42:10;0.00;;;0.00;;
58621;SDS011;44389;51.578;5.456;2023-09-08T11:44:37;0.00;;;0.00;;
58621;SDS011;44389;51.578;5.456;2023-09-08T11:47:03;0.00;;;0.00;;
58621;SDS011;44389;51.578;5.456;2023-09-08T11:49:37;0.00;;;0.00;;
58621;SDS011;44389;51.578;5.456;2023-09-08T11:52:04;0.00;;;0.00;;
58621;SDS011;44389;51.578;5.456;2023-09-08T11:54:33;0.00;;;0.00;;
58621;SDS011;44389;51.578;5.456;2023-09-08T11:57:01;0.00;;;0.00;;
58621;SDS011;44389;51.578;5.456;2023-09-08T11:59:28;0.00;;;0.00;;
58621;SDS011;44389;51.578;5.456;2023-09-08T12:01:56;0.00;;;0.00;;
58621;SDS011;44389;51.578;5.456;2023-09-08T12:04:23;0.00;;;0.00;;
58621;SDS011;44389;51.578;5.456;2023-09-08T12:06:48;0.00;;;0.00;;
58621;SDS011;44389;51.578;5.456;2023-09-08T12:09:14;0.00;;;0.00;;
58621;SDS011;44389;51.578;5.456;2023-09-08T12:11:41;0.00;;;0.00;;
58621;SDS011;44389;51.578;5.456;2023-09-08T12:14:08;0.00;;;0.00;;
58621;SDS011;44389;51.578;5.456;2023-09-08T12:16:35;0.00;;;0.00;;
58621;SDS011;44389;51.578;5.456;2023-09-08T12:19:00;0.00;;;0.00;;
58621;SDS011;44389;51.578;5.456;2023-09-08T12:21:26;0.00;;;0.00;;
58621;SDS011;44389;51.578;5.456;2023-09-08T12:23:52;0.00;;;0.00;;
58621;SDS011;44389;51.578;5.456;2023-09-08T12:26:18;0.00;;;0.00;;
58621;SDS011;44389;51.578;5.456;2023-09-08T12:28:44;0.00;;;0.00;;
58621;SDS011;44389;51.578;5.456;2023-09-08T12:31:10;0.00;;;0.00;;
58621;SDS011;44389;51.578;5.456;2023-09-08T12:33:38;0.00;;;0.00;;
58621;SDS011;44389;51.578;5.456;2023-09-08T12:36:13;0.00;;;0.00;;
58621;SDS011;44389;51.578;5.456;2023-09-08T12:38:40;0.00;;;0.00;;
58621;SDS011;44389;51.578;5.456;2023-09-08T12:41:05;0.00;;;0.00;;
58621;SDS011;44389;51.578;5.456;2023-09-08T12:43:30;0.00;;;0.00;;
58621;SDS011;44389;51.578;5.456;2023-09-08T12:45:56;0.00;;;0.00;;
58621;SDS011;44389;51.578;5.456;2023-09-08T12:48:21;0.00;;;0.00;;
58621;SDS011;44389;51.578;5.456;2023-09-08T12:50:47;0.00;;;0.00;;
58621;SDS011;44389;51.578;5.456;2023-09-08T12:53:14;0.00;;;0.00;;
58621;SDS011;44389;51.578;5.456;2023-09-08T12:55:39;0.00;;;0.00;;
58621;SDS011;44389;51.578;5.456;2023-09-08T12:58:04;0.00;;;0.00;;
58621;SDS011;44389;51.578;5.456;2023-09-08T13:00:30;0.00;;;0.00;;
58621;SDS011;44389;51.578;5.456;2023-09-08T13:02:55;0.00;;;0.00;;
58621;SDS011;44389;51.578;5.456;2023-09-08T13:05:20;0.00;;;0.00;;
58621;SDS011;44389;51.578;5.456;2023-09-08T13:07:46;0.00;;;0.00;;
58621;SDS011;44389;51.578;5.456;2023-09-08T13:10:11;0.00;;;0.00;;
58621;SDS011;44389;51.578;5.456;2023-09-08T13:12:37;0.00;;;0.00;;
58621;SDS011;44389;51.578;5.456;2023-09-08T13:15:02;0.00;;;0.00;;
58621;SDS011;44389;51.578;5.456;2023-09-08T13:17:28;0.00;;;0.00;;
58621;SDS011;44389;51.578;5.456;2023-09-08T13:19:53;0.00;;;0.00;;
58621;SDS011;44389;51.578;5.456;2023-09-08T13:22:19;0.00;;;0.00;;
58621;SDS011;44389;51.578;5.456;2023-09-08T13:24:47;0.00;;;0.00;;
58621;SDS011;44389;51.578;5.456;2023-09-08T13:27:12;0.00;;;0.00;;
58621;SDS011;44389;51.578;5.456;2023-09-08T13:29:40;0.00;;;0.00;;
58621;SDS011;44389;51.578;5.456;2023-09-08T13:32:05;0.00;;;0.00;;
58621;SDS011;44389;51.578;5.456;2023-09-08T13:34:31;0.00;;;0.00;;
58621;SDS011;44389;51.578;5.456;2023-09-08T13:36:57;0.00;;;0.00;;
58621;SDS011;44389;51.578;5.456;2023-09-08T13:39:23;0.00;;;0.00;;
58621;SDS011;44389;51.578;5.456;2023-09-08T13:41:49;0.00;;;0.00;;
58621;SDS011;44389;51.578;5.456;2023-09-08T13:44:15;0.00;;;0.00;;
58621;SDS011;44389;51.578;5.456;2023-09-08T13:46:42;0.00;;;0.00;;
58621;SDS011;44389;51.578;5.456;2023-09-08T13:49:07;0.00;;;0.00;;
58621;SDS011;44389;51.578;5.456;2023-09-08T13:51:32;0.00;;;0.00;;
58621;SDS011;44389;51.578;5.456;2023-09-08T13:53:58;0.00;;;0.00;;
58621;SDS011;44389;51.578;5.456;2023-09-08T13:56:24;0.00;;;0.00;;
58621;SDS011;44389;51.578;5.456;2023-09-08T13:58:49;0.00;;;0.00;;
58621;SDS011;44389;51.578;5.456;2023-09-08T14:01:14;0.00;;;0.00;;
58621;SDS011;44389;51.578;5.456;2023-09-08T14:03:40;0.00;;;0.00;;
58621;SDS011;44389;51.578;5.456;2023-09-08T14:06:05;0.10;;;0.00;;
58621;SDS011;44389;51.578;5.456;2023-09-08T14:08:30;0.00;;;0.00;;
58621;SDS011;44389;51.578;5.456;2023-09-08T14:10:56;0.00;;;0.00;;
58621;SDS011;44389;51.578;5.456;2023-09-08T14:13:21;0.00;;;0.00;;
58621;SDS011;44389;51.578;5.456;2023-09-08T14:15:46;0.00;;;0.00;;
58621;SDS011;44389;51.578;5.456;2023-09-08T14:18:12;0.00;;;0.00;;
58621;SDS011;44389;51.578;5.456;2023-09-08T14:20:39;0.00;;;0.00;;
58621;SDS011;44389;51.578;5.456;2023-09-08T14:23:05;0.00;;;0.00;;
58621;SDS011;44389;51.578;5.456;2023-09-08T14:25:32;0.00;;;0.00;;
58621;SDS011;44389;51.578;5.456;2023-09-08T14:27:58;0.00;;;0.00;;
58621;SDS011;44389;51.578;5.456;2023-09-08T14:30:23;0.00;;;0.00;;
58621;SDS011;44389;51.578;5.456;2023-09-08T14:32:48;0.00;;;0.00;;
58621;SDS011;44389;51.578;5.456;2023-09-08T14:35:14;0.00;;;0.00;;
58621;SDS011;44389;51.578;5.456;2023-09-08T14:37:39;0.00;;;0.00;;
58621;SDS011;44389;51.578;5.456;2023-09-08T14:40:05;0.00;;;0.00;;
58621;SDS011;44389;51.578;5.456;2023-09-08T14:42:31;0.00;;;0.00;;
58621;SDS011;44389;51.578;5.456;2023-09-08T14:44:56;0.00;;;0.00;;
58621;SDS011;44389;51.578;5.456;2023-09-08T14:47:22;0.00;;;0.00;;
58621;SDS011;44389;51.578;5.456;2023-09-08T14:49:47;0.00;;;0.00;;
58621;SDS011;44389;51.578;5.456;2023-09-08T14:52:12;0.00;;;0.00;;